Mitu, Fabio Alberto León Bentley Airport (SKMU)

NameFabio Alberto León Bentley Airport
CityMitu
CountryColombia
ICAOSKMU
IATAMVP
Altitude207 m
CoordinatesGoogle Map
Live Air TrafficLiveATC.net
METARSKMU 152200Z 27003KT 5000 DZ OVC015 25/24 A3007
2018-10-15 22:00:00 Wind: West (270°) 1.54 m/s - Visibility: 5000 m - Weather: Drizzle - Temperature: 25 °C - Dew point: 24 °C - Humidity: 94.2% - Pressure: 1018.29 hPa
Statistics

The table below shows the detailed information of all flights to/from Mitu, Fabio Alberto León Bentley Airport (SKMU).